createdAt,value
2022-10-06T00:03:16.640Z,2.65
2022-10-06T00:08:17.448Z,2.30
2022-10-06T00:13:18.178Z,2.00
2022-10-06T00:18:20.463Z,1.92
2022-10-06T00:23:21.322Z,2.53
2022-10-06T00:28:22.232Z,1.60
2022-10-06T00:33:25.106Z,1.75
2022-10-06T00:38:26.511Z,1.98
2022-10-06T00:43:50.347Z,1.63
2022-10-06T00:48:56.823Z,1.58
2022-10-06T00:53:58.559Z,1.83
2022-10-06T00:59:00.078Z,1.83
2022-10-06T01:04:08.429Z,1.80
2022-10-06T01:09:09.255Z,1.60
2022-10-06T01:14:10.317Z,1.90
2022-10-06T01:19:21.726Z,1.55
2022-10-06T01:24:24.099Z,1.50
2022-10-06T01:29:25.921Z,1.73
2022-10-06T01:34:28.105Z,1.70
2022-10-06T01:39:30.275Z,1.83
2022-10-06T01:44:31.058Z,1.60
2022-10-06T01:49:31.900Z,1.75
2022-10-06T01:54:34.424Z,1.55
2022-10-06T01:59:35.622Z,2.00
2022-10-06T02:04:36.469Z,1.58
2022-10-06T02:09:38.706Z,1.90
2022-10-06T02:14:39.894Z,2.40
2022-10-06T02:19:40.679Z,2.28
2022-10-06T02:24:42.800Z,2.20
2022-10-06T02:29:44.721Z,2.30
2022-10-06T02:34:45.544Z,2.15
2022-10-06T02:39:47.746Z,2.30
2022-10-06T02:44:49.324Z,1.95
2022-10-06T02:49:51.586Z,2.40
2022-10-06T02:54:53.764Z,1.77
2022-10-06T02:59:54.727Z,2.42
2022-10-06T03:04:55.536Z,2.65
2022-10-06T03:09:57.784Z,2.22
2022-10-06T03:14:59.958Z,2.30
2022-10-06T03:20:00.814Z,2.42
2022-10-06T03:25:03.994Z,2.08
2022-10-06T03:30:06.573Z,2.13
2022-10-06T03:35:10.222Z,2.30
2022-10-06T03:40:13.177Z,1.83
2022-10-06T03:45:14.854Z,2.13
2022-10-06T03:50:15.985Z,1.95
2022-10-06T03:55:18.184Z,2.30
2022-10-06T04:00:19.001Z,2.45
2022-10-06T04:05:20.486Z,1.67
2022-10-06T04:10:22.863Z,2.17
2022-10-06T04:15:23.690Z,2.03
2022-10-06T04:20:24.758Z,3.10
2022-10-06T04:25:27.069Z,2.33
2022-10-06T04:30:28.913Z,2.70
2022-10-06T04:35:29.826Z,2.47
2022-10-06T04:40:32.256Z,2.67
2022-10-06T04:45:33.242Z,2.58
2022-10-06T04:50:34.284Z,2.45
2022-10-06T04:55:42.396Z,2.28
2022-10-06T05:00:43.345Z,2.92
2022-10-06T05:05:44.364Z,3.40
2022-10-06T05:10:46.571Z,2.70
2022-10-06T05:15:56.696Z,2.97
2022-10-06T05:21:01.065Z,2.90
2022-10-06T05:26:08.988Z,2.58
2022-10-06T05:31:13.217Z,1.83
2022-10-06T05:36:16.207Z,1.85
2022-10-06T05:41:21.044Z,1.60
2022-10-06T05:46:25.062Z,2.63
2022-10-06T05:51:30.866Z,1.60
2022-10-06T05:56:36.661Z,1.70
2022-10-06T06:01:40.010Z,1.90
2022-10-06T06:06:49.216Z,1.58
2022-10-06T06:11:55.452Z,2.10
2022-10-06T06:17:05.381Z,2.05
2022-10-06T06:22:06.374Z,1.90
2022-10-06T06:27:11.000Z,2.67
2022-10-06T06:32:13.506Z,1.08
2022-10-06T06:37:15.494Z,0.57
2022-10-06T06:42:20.577Z,0.73
2022-10-06T06:47:24.388Z,0.63
2022-10-06T06:52:27.019Z,1.00
2022-10-06T06:57:29.718Z,0.93
2022-10-06T07:02:32.334Z,1.10
2022-10-06T07:07:34.154Z,1.00
2022-10-06T07:12:36.580Z,1.10
2022-10-06T07:17:56.032Z,1.98
2022-10-06T07:23:14.751Z,1.08
2022-10-06T07:28:17.901Z,0.90
2022-10-06T07:33:19.002Z,0.93
2022-10-06T07:38:25.723Z,0.80
2022-10-06T07:43:29.231Z,0.77
2022-10-06T07:48:30.717Z,1.23
2022-10-06T07:53:35.584Z,1.10
2022-10-06T07:58:44.211Z,0.80
2022-10-06T08:03:48.492Z,0.73
2022-10-06T08:08:52.843Z,1.17
2022-10-06T08:13:55.415Z,1.35
2022-10-06T08:18:57.526Z,1.10
2022-10-06T08:23:59.914Z,0.90
2022-10-06T08:29:03.390Z,0.75
2022-10-06T08:34:07.605Z,1.10
2022-10-06T08:39:10.814Z,1.10
2022-10-06T08:44:30.339Z,0.75
2022-10-06T08:49:38.456Z,0.80
2022-10-06T08:54:44.056Z,1.00
2022-10-06T08:59:49.104Z,0.85
2022-10-06T09:04:51.201Z,1.00
2022-10-06T09:10:04.430Z,1.00
2022-10-06T09:15:21.095Z,0.85
2022-10-06T09:20:31.102Z,1.05
2022-10-06T09:25:32.065Z,0.70
2022-10-06T09:30:34.229Z,0.80
2022-10-06T09:35:37.092Z,0.85
2022-10-06T09:40:41.979Z,1.40
2022-10-06T09:45:44.097Z,1.58
2022-10-06T09:50:44.871Z,0.93
2022-10-06T09:55:54.617Z,0.80
2022-10-06T10:01:00.176Z,0.85
2022-10-06T10:06:02.294Z,1.20
2022-10-06T10:11:36.119Z,0.82
2022-10-06T10:16:38.334Z,0.90
2022-10-06T10:21:39.926Z,1.33
2022-10-06T10:26:48.798Z,1.15
2022-10-06T10:32:04.809Z,1.33
2022-10-06T10:37:10.087Z,1.33
2022-10-06T10:42:16.603Z,1.65
2022-10-06T10:47:25.843Z,1.42
2022-10-06T10:52:33.266Z,1.55
2022-10-06T10:57:39.940Z,1.13
2022-10-06T11:02:42.153Z,1.13
2022-10-06T11:07:50.212Z,1.65
2022-10-06T11:13:05.930Z,1.30
2022-10-06T11:18:21.312Z,1.08
2022-10-06T11:23:33.570Z,0.90
2022-10-06T11:28:43.175Z,1.20
2022-10-06T11:33:49.749Z,0.88
2022-10-06T11:38:57.550Z,1.20
2022-10-06T11:44:04.488Z,0.98
2022-10-06T11:49:43.330Z,0.90
2022-10-06T11:54:51.276Z,1.23
2022-10-06T11:59:53.878Z,1.48
2022-10-06T12:05:55.441Z,1.55
2022-10-06T12:10:51.675Z,0.60
2022-10-06T12:21:46.050Z,0.98
2022-10-06T12:26:54.699Z,1.00
2022-10-06T12:32:03.152Z,1.02
2022-10-06T12:37:34.477Z,1.23
2022-10-06T12:42:36.697Z,1.02
2022-10-06T12:47:41.705Z,0.95
2022-10-06T12:52:48.099Z,1.23
2022-10-06T12:57:53.353Z,1.10
2022-10-06T13:02:57.688Z,1.33
2022-10-06T13:08:00.085Z,0.90
2022-10-06T13:13:02.672Z,1.10
2022-10-06T13:18:13.571Z,1.00
2022-10-06T13:23:27.033Z,1.33
2022-10-06T13:28:46.599Z,1.10
2022-10-06T13:33:51.905Z,0.73
2022-10-06T13:38:53.366Z,2.00
2022-10-06T13:43:58.869Z,1.30
2022-10-06T13:49:03.367Z,1.50
2022-10-06T13:54:18.793Z,1.17
2022-10-06T13:59:35.782Z,1.08
2022-10-06T14:04:38.936Z,1.30
2022-10-06T14:09:42.063Z,0.95
2022-10-06T14:14:48.960Z,1.23
2022-10-06T14:19:50.096Z,1.55
2022-10-06T14:24:52.368Z,1.35
2022-10-06T14:29:54.670Z,1.00
2022-10-06T14:34:55.583Z,1.05
2022-10-06T14:39:56.634Z,1.40
2022-10-06T14:44:59.255Z,1.35
2022-10-06T14:50:00.461Z,0.82
2022-10-06T14:55:01.576Z,1.30
2022-10-06T15:00:05.461Z,1.35
2022-10-06T15:05:07.145Z,1.20
2022-10-06T15:10:08.858Z,1.15
2022-10-06T15:15:16.994Z,1.30
2022-10-06T15:20:17.798Z,1.60
2022-10-06T15:25:32.579Z,1.35
2022-10-06T15:30:34.714Z,1.48
2022-10-06T15:35:35.468Z,1.70
2022-10-06T15:40:36.260Z,1.48
2022-10-06T15:45:38.332Z,1.55
2022-10-06T15:50:39.489Z,0.90
2022-10-06T15:55:40.642Z,1.20
2022-10-06T16:00:44.120Z,1.60
2022-10-06T16:05:50.026Z,1.10
2022-10-06T16:10:51.197Z,1.17
2022-10-06T16:15:55.447Z,1.10
2022-10-06T16:20:56.813Z,1.60
2022-10-06T16:25:57.559Z,1.40
2022-10-06T16:30:59.737Z,1.58
2022-10-06T16:36:00.621Z,1.27
2022-10-06T16:41:02.600Z,2.03
2022-10-06T16:46:06.722Z,1.95
2022-10-06T16:51:09.095Z,3.20
2022-10-06T16:56:13.690Z,1.75
2022-10-06T17:01:17.488Z,1.83
2022-10-06T17:06:19.108Z,2.05
2022-10-06T17:11:23.683Z,2.00
2022-10-06T17:16:30.974Z,1.55
2022-10-06T17:21:45.484Z,1.88
2022-10-06T17:26:49.867Z,2.28
2022-10-06T17:31:59.919Z,1.98
2022-10-06T17:37:02.006Z,2.35
2022-10-06T17:42:03.880Z,1.73
2022-10-06T17:47:07.045Z,2.20
2022-10-06T17:52:07.817Z,1.95
2022-10-06T17:57:08.672Z,2.28
2022-10-06T18:02:13.468Z,1.80
2022-10-06T18:07:14.304Z,2.47
2022-10-06T18:12:15.102Z,2.88
2022-10-06T18:17:18.362Z,4.35
2022-10-06T18:22:19.373Z,2.92
2022-10-06T18:27:20.558Z,4.15
2022-10-06T18:37:43.766Z,4.05
2022-10-06T18:42:44.795Z,4.72
2022-10-06T18:48:04.508Z,5.25
2022-10-06T18:53:05.351Z,5.13
2022-10-06T18:58:06.391Z,4.97
2022-10-06T19:03:08.568Z,5.53
2022-10-06T19:08:09.447Z,5.40
2022-10-06T19:13:10.178Z,4.93
2022-10-06T19:18:12.315Z,5.18
2022-10-06T19:23:14.345Z,5.15
2022-10-06T19:28:15.770Z,5.00
2022-10-06T19:33:18.016Z,4.22
2022-10-06T19:38:18.884Z,4.93
2022-10-06T19:43:19.742Z,5.50
2022-10-06T19:48:21.955Z,4.18
2022-10-06T19:53:22.787Z,4.80
2022-10-06T19:58:23.582Z,4.25
2022-10-06T20:03:26.066Z,4.80
2022-10-06T20:08:27.272Z,4.10
2022-10-06T20:13:28.098Z,5.07
2022-10-06T20:18:30.356Z,5.35
2022-10-06T20:23:32.822Z,4.28
2022-10-06T20:28:34.658Z,5.07
2022-10-06T20:33:36.822Z,5.05
2022-10-06T20:38:55.020Z,4.65
2022-10-06T20:43:57.175Z,4.07
2022-10-06T20:49:05.056Z,4.93
2022-10-06T20:54:07.292Z,4.75
2022-10-06T20:59:08.861Z,4.97
2022-10-06T21:04:11.429Z,4.57
2022-10-06T21:09:14.709Z,5.03
2022-10-06T21:14:16.026Z,5.18
2022-10-06T21:19:19.983Z,4.65
2022-10-06T21:24:21.433Z,4.65
2022-10-06T21:29:22.586Z,4.90
2022-10-06T21:34:24.929Z,4.93
2022-10-06T21:39:25.859Z,4.70
2022-10-06T21:44:26.775Z,4.43
2022-10-06T21:49:29.171Z,4.45
2022-10-06T21:54:30.318Z,5.18
2022-10-06T21:59:31.341Z,3.85
2022-10-06T22:04:33.600Z,4.00
2022-10-06T22:09:39.246Z,3.50
2022-10-06T22:14:40.400Z,3.13
2022-10-06T22:19:42.645Z,3.30
2022-10-06T22:24:43.610Z,3.67
2022-10-06T22:29:44.557Z,3.20
2022-10-06T22:34:46.824Z,3.92
2022-10-06T22:39:47.706Z,3.60
2022-10-06T22:44:48.580Z,3.28
2022-10-06T22:49:50.789Z,3.15
2022-10-06T22:54:51.639Z,3.90
2022-10-06T22:59:52.732Z,3.55
2022-10-06T23:04:54.960Z,3.20
2022-10-06T23:09:55.835Z,4.20
2022-10-06T23:14:56.704Z,3.75
2022-10-06T23:19:59.001Z,3.60
2022-10-06T23:25:00.004Z,3.38
2022-10-06T23:30:00.924Z,4.10
2022-10-06T23:35:03.177Z,3.78
2022-10-06T23:40:04.679Z,4.45
2022-10-06T23:45:07.775Z,3.42
2022-10-06T23:50:10.637Z,3.30
2022-10-06T23:55:11.499Z,3.58
